createdAt,value
2023-01-20T00:01:43.379Z,6.68
2023-01-20T00:04:11.308Z,6.72
2023-01-20T00:06:38.833Z,6.63
2023-01-20T00:09:06.823Z,6.15
2023-01-20T00:11:34.424Z,6.72
2023-01-20T00:14:03.008Z,6.40
2023-01-20T00:16:32.294Z,6.15
2023-01-20T00:19:00.175Z,7.15
2023-01-20T00:21:27.797Z,6.38
2023-01-20T00:23:55.547Z,6.47
2023-01-20T00:26:27.178Z,7.03
2023-01-20T00:28:57.661Z,7.03
2023-01-20T00:31:27.872Z,7.43
2023-01-20T00:33:57.591Z,6.50
2023-01-20T00:36:26.449Z,5.82
2023-01-20T00:38:54.029Z,6.85
2023-01-20T00:41:21.427Z,7.13
2023-01-20T00:43:49.071Z,6.78
2023-01-20T00:46:17.114Z,5.57
2023-01-20T00:48:44.484Z,6.18
2023-01-20T00:51:11.927Z,6.13
2023-01-20T00:53:39.267Z,5.60
2023-01-20T00:56:07.287Z,5.35
2023-01-20T00:58:35.309Z,5.28
2023-01-20T01:01:02.742Z,5.35
2023-01-20T01:03:30.299Z,5.72
2023-01-20T01:06:14.783Z,5.72
2023-01-20T01:08:43.106Z,5.47
2023-01-20T01:11:11.694Z,6.20
2023-01-20T01:13:39.500Z,5.57
2023-01-20T01:16:12.794Z,5.65
2023-01-20T01:18:41.051Z,6.32
2023-01-20T01:21:11.283Z,6.10
2023-01-20T01:23:38.637Z,5.75
2023-01-20T01:26:06.729Z,5.10
2023-01-20T01:28:36.274Z,4.82
2023-01-20T01:31:04.946Z,5.28
2023-01-20T01:33:33.228Z,6.47
2023-01-20T01:36:02.731Z,5.53
2023-01-20T01:38:30.356Z,5.50
2023-01-20T01:40:58.282Z,5.72
2023-01-20T01:43:34.994Z,5.88
2023-01-20T01:46:02.575Z,4.85
2023-01-20T01:48:45.666Z,5.53
2023-01-20T01:51:23.517Z,6.47
2023-01-20T01:53:57.561Z,5.18
2023-01-20T01:56:27.608Z,7.63
2023-01-20T01:58:58.484Z,4.43
2023-01-20T02:01:27.244Z,5.32
2023-01-20T02:04:03.482Z,5.68
2023-01-20T02:06:34.293Z,5.05
2023-01-20T02:09:03.990Z,4.93
2023-01-20T02:11:36.690Z,6.03
2023-01-20T02:14:04.398Z,5.47
2023-01-20T02:17:12.110Z,5.50
2023-01-20T02:19:54.939Z,5.10
2023-01-20T02:22:56.432Z,5.07
2023-01-20T02:25:38.167Z,4.88
2023-01-20T02:28:47.636Z,4.50
2023-01-20T02:31:20.717Z,4.28
2023-01-20T02:34:03.512Z,5.35
2023-01-20T02:36:53.437Z,4.88
2023-01-20T02:39:36.100Z,5.13
2023-01-20T02:42:44.831Z,4.75
2023-01-20T02:45:41.338Z,4.50
2023-01-20T02:48:49.396Z,5.40
2023-01-20T02:51:20.552Z,4.47
2023-01-20T02:54:00.571Z,4.88
2023-01-20T02:56:30.407Z,4.82
2023-01-20T02:59:04.239Z,5.40
2023-01-20T03:01:38.218Z,5.13
2023-01-20T03:04:09.746Z,4.88
2023-01-20T03:06:42.524Z,4.07
2023-01-20T03:09:14.228Z,5.13
2023-01-20T03:11:51.238Z,4.82
2023-01-20T03:14:19.165Z,5.40
2023-01-20T03:16:48.911Z,4.70
2023-01-20T03:19:20.313Z,4.00
2023-01-20T03:21:48.818Z,3.88
2023-01-20T03:24:16.369Z,4.53
2023-01-20T03:26:43.750Z,4.20
2023-01-20T03:29:12.738Z,4.63
2023-01-20T03:31:47.309Z,3.47
2023-01-20T03:34:22.123Z,3.55
2023-01-20T03:36:50.414Z,3.92
2023-01-20T03:39:18.845Z,4.03
2023-01-20T03:42:08.301Z,4.22
2023-01-20T03:44:47.546Z,3.45
2023-01-20T03:47:33.717Z,3.08
2023-01-20T03:50:22.625Z,2.80
2023-01-20T03:52:58.117Z,4.22
2023-01-20T03:55:36.029Z,3.93
2023-01-20T03:58:08.649Z,2.92
2023-01-20T04:00:45.490Z,3.80
2023-01-20T04:03:28.733Z,3.65
2023-01-20T04:05:58.794Z,4.65
2023-01-20T04:08:30.831Z,2.83
2023-01-20T04:11:01.122Z,3.38
2023-01-20T04:13:28.397Z,3.35
2023-01-20T04:15:57.849Z,4.72
2023-01-20T04:18:25.391Z,4.45
2023-01-20T04:21:02.061Z,3.40
2023-01-20T04:23:49.972Z,3.10
2023-01-20T04:26:17.283Z,3.08
2023-01-20T04:28:44.543Z,3.05
2023-01-20T04:31:28.776Z,3.30
2023-01-20T04:33:57.234Z,3.85
2023-01-20T04:36:24.756Z,2.95
2023-01-20T04:38:52.019Z,3.22
2023-01-20T04:41:19.409Z,4.03
2023-01-20T04:43:47.067Z,3.60
2023-01-20T04:46:15.656Z,3.20
2023-01-20T04:48:45.107Z,3.15
2023-01-20T04:51:13.188Z,3.10
2023-01-20T04:53:40.667Z,2.53
2023-01-20T04:56:15.489Z,3.53
2023-01-20T04:58:43.384Z,3.60
2023-01-20T05:01:10.800Z,3.08
2023-01-20T05:03:38.199Z,3.38
2023-01-20T05:06:06.501Z,3.22
2023-01-20T05:08:34.148Z,4.55
2023-01-20T05:11:01.418Z,3.05
2023-01-20T05:13:28.813Z,4.82
2023-01-20T05:15:56.592Z,3.10
2023-01-20T05:18:24.005Z,2.72
2023-01-20T05:20:51.314Z,3.00
2023-01-20T05:23:18.666Z,3.33
2023-01-20T05:25:52.806Z,3.60
2023-01-20T05:28:20.921Z,3.22
2023-01-20T05:30:48.708Z,3.83
2023-01-20T05:33:16.307Z,2.97
2023-01-20T05:35:43.720Z,3.30
2023-01-20T05:38:11.080Z,3.47
2023-01-20T05:40:38.803Z,2.78
2023-01-20T05:43:06.137Z,2.50
2023-01-20T05:45:33.768Z,3.72
2023-01-20T05:48:01.385Z,3.25
2023-01-20T05:50:29.406Z,4.00
2023-01-20T05:52:56.743Z,2.83
2023-01-20T05:55:24.090Z,2.75
2023-01-20T05:57:51.413Z,3.17
2023-01-20T06:00:19.263Z,3.15
2023-01-20T06:02:46.783Z,3.03
2023-01-20T06:05:14.448Z,3.85
2023-01-20T06:07:41.948Z,3.10
2023-01-20T06:10:09.809Z,2.60
2023-01-20T06:12:37.458Z,2.85
2023-01-20T06:15:05.244Z,4.72
2023-01-20T06:17:32.538Z,3.97
2023-01-20T06:20:00.472Z,3.72
2023-01-20T06:22:27.777Z,4.07
2023-01-20T06:24:55.275Z,2.83
2023-01-20T06:27:22.573Z,3.22
2023-01-20T06:29:50.962Z,2.85
2023-01-20T06:32:18.660Z,6.40
2023-01-20T06:34:46.198Z,3.72
2023-01-20T06:37:13.837Z,4.47
2023-01-20T06:39:41.163Z,3.35
2023-01-20T06:42:08.452Z,2.92
2023-01-20T06:44:35.805Z,4.45
2023-01-20T06:47:03.235Z,3.42
2023-01-20T06:49:30.542Z,2.47
2023-01-20T06:51:57.808Z,3.05
2023-01-20T06:54:25.311Z,2.70
2023-01-20T06:56:52.843Z,3.42
2023-01-20T06:59:20.144Z,3.45
2023-01-20T07:01:47.668Z,2.88
2023-01-20T07:04:15.044Z,3.17
2023-01-20T07:06:42.617Z,2.83
2023-01-20T07:09:12.199Z,3.47
2023-01-20T07:11:40.463Z,3.17
2023-01-20T07:14:08.426Z,5.53
2023-01-20T07:16:36.109Z,6.38
2023-01-20T07:19:04.270Z,5.18
2023-01-20T07:21:31.900Z,7.15
2023-01-20T07:24:02.615Z,5.32
2023-01-20T07:26:30.574Z,5.93
2023-01-20T07:28:59.174Z,4.90
2023-01-20T07:31:28.815Z,3.70
2023-01-20T07:33:56.689Z,4.18
2023-01-20T07:36:24.857Z,4.20
2023-01-20T07:38:53.246Z,6.95
2023-01-20T07:41:21.835Z,4.20
2023-01-20T07:43:51.994Z,2.88
2023-01-20T07:46:20.003Z,3.63
2023-01-20T07:48:47.442Z,3.53
2023-01-20T07:51:16.180Z,3.53
2023-01-20T07:53:48.912Z,4.55
2023-01-20T07:56:17.967Z,3.53
2023-01-20T07:58:47.727Z,3.50
2023-01-20T08:01:20.215Z,4.18
2023-01-20T08:03:48.091Z,5.20
2023-01-20T08:06:18.370Z,5.28
2023-01-20T08:08:45.795Z,4.30
2023-01-20T08:11:15.976Z,5.47
2023-01-20T08:13:43.564Z,4.75
2023-01-20T08:16:13.918Z,5.03
2023-01-20T08:18:43.791Z,3.50
2023-01-20T08:21:29.401Z,3.13
2023-01-20T08:23:58.167Z,4.45
2023-01-20T08:26:30.703Z,4.63
2023-01-20T08:29:09.807Z,4.15
2023-01-20T08:31:37.728Z,4.53
2023-01-20T08:34:05.732Z,4.07
2023-01-20T08:36:35.598Z,5.15
2023-01-20T08:39:05.724Z,5.95
2023-01-20T08:41:36.110Z,5.50
2023-01-20T08:44:06.008Z,6.30
2023-01-20T08:46:33.514Z,5.20
2023-01-20T08:49:00.898Z,6.03
2023-01-20T08:51:31.658Z,6.15
2023-01-20T08:53:59.549Z,5.05
2023-01-20T08:56:27.253Z,4.65
2023-01-20T08:58:55.658Z,9.18
2023-01-20T09:01:26.570Z,6.07
2023-01-20T09:04:05.288Z,6.15
2023-01-20T09:06:45.386Z,6.18
2023-01-20T09:09:14.445Z,7.13
2023-01-20T09:11:44.873Z,5.38
2023-01-20T09:14:12.411Z,4.93
2023-01-20T09:16:39.958Z,4.95
2023-01-20T09:19:07.390Z,7.93
2023-01-20T09:21:34.731Z,5.57
2023-01-20T09:24:02.486Z,5.22
2023-01-20T09:26:38.980Z,6.15
2023-01-20T09:29:17.559Z,5.57
2023-01-20T09:31:53.871Z,4.82
2023-01-20T09:36:53.006Z,5.97
2023-01-20T09:39:40.151Z,5.22
2023-01-20T09:43:11.790Z,5.28
2023-01-20T09:45:46.522Z,4.60
2023-01-20T09:48:35.922Z,5.40
2023-01-20T09:51:30.035Z,5.43
2023-01-20T09:54:08.750Z,5.18
2023-01-20T09:56:43.738Z,5.20
2023-01-20T09:59:19.509Z,5.30
2023-01-20T10:01:50.244Z,5.47
2023-01-20T10:04:37.631Z,5.32
2023-01-20T10:07:29.949Z,7.35
2023-01-20T10:10:11.837Z,8.70
2023-01-20T10:13:19.702Z,10.77
2023-01-20T10:18:24.257Z,10.27
2023-01-20T10:21:04.509Z,9.60
2023-01-20T10:23:43.647Z,5.40
2023-01-20T10:26:20.849Z,6.65
2023-01-20T10:29:00.967Z,5.60
2023-01-20T10:31:43.988Z,6.20
2023-01-20T10:34:18.744Z,5.32
2023-01-20T10:36:56.214Z,5.32
2023-01-20T10:39:49.918Z,5.70
2023-01-20T10:42:19.091Z,5.32
2023-01-20T10:44:49.883Z,6.25
2023-01-20T10:47:18.777Z,6.28
2023-01-20T10:50:19.868Z,5.47
2023-01-20T10:53:07.582Z,4.70
2023-01-20T10:55:49.803Z,5.88
2023-01-20T10:58:27.624Z,5.82
2023-01-20T11:00:56.053Z,5.68
2023-01-20T11:03:25.124Z,5.65
2023-01-20T11:05:52.738Z,4.90
2023-01-20T11:08:26.990Z,4.72
2023-01-20T11:11:00.333Z,5.10
2023-01-20T11:13:27.864Z,5.90
2023-01-20T11:16:00.358Z,6.43
2023-01-20T11:18:30.233Z,4.22
2023-01-20T11:21:04.627Z,4.15
2023-01-20T11:23:55.875Z,4.18
2023-01-20T11:26:30.768Z,4.65
2023-01-20T11:29:02.545Z,5.38
2023-01-20T11:31:42.861Z,4.25
2023-01-20T11:34:30.154Z,4.10
2023-01-20T11:37:06.717Z,3.45
2023-01-20T11:39:47.299Z,3.20
2023-01-20T11:42:24.895Z,3.20
2023-01-20T11:45:19.900Z,3.33
2023-01-20T11:48:02.938Z,3.25
2023-01-20T11:50:40.596Z,2.90
2023-01-20T11:53:32.637Z,5.35
2023-01-20T11:56:14.734Z,2.97
2023-01-20T11:59:03.412Z,3.25
2023-01-20T12:01:53.753Z,2.45
2023-01-20T12:04:39.167Z,3.17
2023-01-20T12:07:14.054Z,5.10
2023-01-20T12:09:49.087Z,3.92
2023-01-20T12:12:40.007Z,3.25
2023-01-20T12:15:11.537Z,3.35
2023-01-20T12:17:50.888Z,3.45
2023-01-20T12:20:22.338Z,3.22
2023-01-20T12:23:39.329Z,4.28
2023-01-20T12:26:10.374Z,3.60
2023-01-20T12:28:56.407Z,2.88
2023-01-20T12:31:25.156Z,4.10
2023-01-20T12:34:04.994Z,3.85
2023-01-20T12:36:35.369Z,3.67
2023-01-20T12:39:25.528Z,2.75
2023-01-20T12:42:11.317Z,4.53
2023-01-20T12:44:50.859Z,3.10
2023-01-20T12:47:42.398Z,4.53
2023-01-20T12:50:12.859Z,2.95
2023-01-20T12:52:46.647Z,3.25
2023-01-20T12:55:55.811Z,3.28
2023-01-20T12:58:36.100Z,5.03
2023-01-20T13:01:19.211Z,3.97
2023-01-20T13:04:10.749Z,3.65
2023-01-20T13:07:07.723Z,3.58
2023-01-20T13:09:49.010Z,3.53
2023-01-20T13:12:19.341Z,3.75
2023-01-20T13:14:54.304Z,3.60
2023-01-20T13:17:36.838Z,3.50
2023-01-20T13:20:12.002Z,3.03
2023-01-20T13:22:39.578Z,3.42
2023-01-20T13:25:13.862Z,4.22
2023-01-20T13:27:41.743Z,3.88
2023-01-20T13:30:43.525Z,7.75
2023-01-20T13:33:29.030Z,5.95
2023-01-20T13:35:57.379Z,4.95
2023-01-20T13:38:33.333Z,4.55
2023-01-20T13:41:06.177Z,3.85
2023-01-20T13:43:53.316Z,3.40
2023-01-20T13:46:20.660Z,3.70
2023-01-20T13:49:12.864Z,4.63
2023-01-20T13:51:44.334Z,4.55
2023-01-20T13:54:25.211Z,4.07
2023-01-20T13:56:52.926Z,3.75
2023-01-20T13:59:20.251Z,4.20
2023-01-20T14:01:47.631Z,3.30
2023-01-20T14:04:18.733Z,3.65
2023-01-20T14:06:52.362Z,3.60
2023-01-20T14:09:25.142Z,4.13
2023-01-20T14:11:55.497Z,3.85
2023-01-20T14:14:25.416Z,4.07
2023-01-20T14:16:52.880Z,3.97
2023-01-20T14:19:23.518Z,4.40
2023-01-20T14:22:22.639Z,3.55
2023-01-20T14:24:57.251Z,4.40
2023-01-20T14:27:28.242Z,3.83
2023-01-20T14:29:58.442Z,3.90
2023-01-20T14:32:32.504Z,3.28
2023-01-20T14:35:00.672Z,4.93
2023-01-20T14:37:37.235Z,3.47
2023-01-20T14:40:25.927Z,3.55
2023-01-20T14:43:01.313Z,4.18
2023-01-20T14:45:31.650Z,3.58
2023-01-20T14:48:01.967Z,3.67
2023-01-20T14:50:29.828Z,3.20
2023-01-20T14:52:57.245Z,3.35
2023-01-20T14:55:27.564Z,3.65
2023-01-20T14:57:55.169Z,3.65
2023-01-20T15:00:29.506Z,3.60
2023-01-20T15:03:21.994Z,3.42
2023-01-20T15:05:54.290Z,3.63
2023-01-20T15:08:33.358Z,3.08
2023-01-20T15:11:09.875Z,3.53
2023-01-20T15:13:39.179Z,4.90
2023-01-20T15:16:33.288Z,3.58
2023-01-20T15:19:16.529Z,3.53
2023-01-20T15:21:46.710Z,3.10
2023-01-20T15:24:30.643Z,3.95
2023-01-20T15:27:03.013Z,3.65
2023-01-20T15:29:33.214Z,3.30
2023-01-20T15:32:03.246Z,4.57
2023-01-20T15:34:30.651Z,3.63
2023-01-20T15:36:58.066Z,3.28
2023-01-20T15:39:30.495Z,3.38
2023-01-20T15:41:58.246Z,3.60
2023-01-20T15:44:26.618Z,4.15
2023-01-20T15:46:57.257Z,3.22
2023-01-20T15:49:25.666Z,3.53
2023-01-20T15:51:53.154Z,3.65
2023-01-20T15:54:20.403Z,4.38
2023-01-20T15:56:47.718Z,5.28
2023-01-20T15:59:17.868Z,3.80
2023-01-20T16:01:47.385Z,4.30
2023-01-20T16:04:15.146Z,4.72
2023-01-20T16:06:43.157Z,3.97
2023-01-20T16:09:21.424Z,3.92
2023-01-20T16:11:48.780Z,3.53
2023-01-20T16:14:16.384Z,3.65
2023-01-20T16:16:43.821Z,3.88
2023-01-20T16:19:13.570Z,4.95
2023-01-20T16:21:41.336Z,4.70
2023-01-20T16:24:08.991Z,4.15
2023-01-20T16:26:37.656Z,4.25
2023-01-20T16:29:05.099Z,3.58
2023-01-20T16:31:33.731Z,4.05
2023-01-20T16:34:01.122Z,3.65
2023-01-20T16:36:28.432Z,3.85
2023-01-20T16:38:56.389Z,4.82
2023-01-20T16:41:26.086Z,3.50
2023-01-20T16:43:55.420Z,4.15
2023-01-20T16:46:29.044Z,4.50
2023-01-20T16:49:02.098Z,4.15
2023-01-20T16:51:30.648Z,4.20
2023-01-20T16:53:58.591Z,4.82
2023-01-20T16:56:28.708Z,3.40
2023-01-20T16:59:15.161Z,3.78
2023-01-20T17:01:42.492Z,4.05
2023-01-20T17:04:10.954Z,4.82
2023-01-20T17:06:38.376Z,4.53
2023-01-20T17:09:05.871Z,4.00
2023-01-20T17:11:35.871Z,4.50
2023-01-20T17:14:06.632Z,4.43
2023-01-20T17:16:34.101Z,4.00
2023-01-20T17:19:02.026Z,4.07
2023-01-20T17:21:31.426Z,4.90
2023-01-20T17:24:04.329Z,4.53
2023-01-20T17:26:32.070Z,3.78
2023-01-20T17:29:04.500Z,4.90
2023-01-20T17:31:35.649Z,4.35
2023-01-20T17:34:04.619Z,4.25
2023-01-20T17:36:34.764Z,4.82
2023-01-20T17:39:03.945Z,4.00
2023-01-20T17:41:31.700Z,3.33
2023-01-20T17:43:59.134Z,5.15
2023-01-20T17:46:29.280Z,4.75
2023-01-20T17:48:57.623Z,5.45
2023-01-20T17:51:27.165Z,4.50
2023-01-20T17:53:54.911Z,4.22
2023-01-20T17:56:22.826Z,3.72
2023-01-20T17:58:50.686Z,3.97
2023-01-20T18:01:32.786Z,5.45
2023-01-20T18:04:01.347Z,4.05
2023-01-20T18:06:29.012Z,4.00
2023-01-20T18:08:58.518Z,3.30
2023-01-20T18:11:27.692Z,4.30
2023-01-20T18:13:56.832Z,4.22
2023-01-20T18:16:28.177Z,3.80
2023-01-20T18:18:59.051Z,4.20
2023-01-20T18:21:37.037Z,4.30
2023-01-20T18:24:07.433Z,4.18
2023-01-20T18:26:36.624Z,5.93
2023-01-20T18:29:13.347Z,3.88
2023-01-20T18:31:41.208Z,3.60
2023-01-20T18:34:11.710Z,4.32
2023-01-20T18:36:41.282Z,3.42
2023-01-20T18:39:19.886Z,4.47
2023-01-20T18:41:48.094Z,3.85
2023-01-20T18:44:15.804Z,5.15
2023-01-20T18:46:43.414Z,6.45
2023-01-20T18:49:14.979Z,4.60
2023-01-20T18:51:43.134Z,4.25
2023-01-20T18:54:17.584Z,5.03
2023-01-20T18:56:45.491Z,3.92
2023-01-20T18:59:13.226Z,4.55
2023-01-20T19:01:41.280Z,7.80
2023-01-20T19:04:11.287Z,5.07
2023-01-20T19:06:40.989Z,4.25
2023-01-20T19:09:08.585Z,3.67
2023-01-20T19:11:39.755Z,3.53
2023-01-20T19:14:09.467Z,4.40
2023-01-20T19:16:39.271Z,4.13
2023-01-20T19:19:07.364Z,3.92
2023-01-20T19:21:36.340Z,3.28
2023-01-20T19:24:06.181Z,3.92
2023-01-20T19:26:38.025Z,4.82
2023-01-20T19:29:07.840Z,4.18
2023-01-20T19:31:37.965Z,4.30
2023-01-20T19:34:09.317Z,3.92
2023-01-20T19:36:37.482Z,4.15
2023-01-20T19:39:05.535Z,3.15
2023-01-20T19:41:34.471Z,3.58
2023-01-20T19:44:04.524Z,6.28
2023-01-20T19:46:34.100Z,3.95
2023-01-20T19:49:02.527Z,7.38
2023-01-20T19:51:32.206Z,6.50
2023-01-20T19:54:01.278Z,4.28
2023-01-20T19:56:31.148Z,4.75
2023-01-20T19:59:02.545Z,5.47
2023-01-20T20:01:33.354Z,6.57
2023-01-20T20:04:12.797Z,4.70
2023-01-20T20:06:48.544Z,4.28
2023-01-20T20:09:19.007Z,5.75
2023-01-20T20:11:47.841Z,6.07
2023-01-20T20:14:18.093Z,5.38
2023-01-20T20:16:45.606Z,5.18
2023-01-20T20:19:16.648Z,4.00
2023-01-20T20:21:45.171Z,4.85
2023-01-20T20:24:14.323Z,4.57
2023-01-20T20:26:42.207Z,4.97
2023-01-20T20:29:10.636Z,4.78
2023-01-20T20:31:40.348Z,4.32
2023-01-20T20:34:11.141Z,4.82
2023-01-20T20:36:39.792Z,5.65
2023-01-20T20:39:07.909Z,6.82
2023-01-20T20:41:36.662Z,5.25
2023-01-20T20:44:04.186Z,5.32
2023-01-20T20:46:32.065Z,5.10
2023-01-20T20:49:01.051Z,4.47
2023-01-20T20:51:31.846Z,4.40
2023-01-20T20:54:01.936Z,4.97
2023-01-20T20:56:33.730Z,4.50
2023-01-20T20:59:03.451Z,5.35
2023-01-20T21:01:33.055Z,4.85
2023-01-20T21:04:01.345Z,6.68
2023-01-20T21:06:29.798Z,7.13
2023-01-20T21:08:58.735Z,7.18
2023-01-20T21:11:26.940Z,7.07
2023-01-20T21:13:54.563Z,6.10
2023-01-20T21:16:23.510Z,6.68
2023-01-20T21:18:53.692Z,6.75
2023-01-20T21:21:21.697Z,5.72
2023-01-20T21:23:54.358Z,5.93
2023-01-20T21:26:22.452Z,5.22
2023-01-20T21:28:49.868Z,5.22
2023-01-20T21:31:21.432Z,6.20
2023-01-20T21:33:53.955Z,6.68
2023-01-20T21:36:22.196Z,7.28
2023-01-20T21:38:49.935Z,8.93
2023-01-20T21:41:18.365Z,6.55
2023-01-20T21:44:06.280Z,10.77
2023-01-20T21:46:38.370Z,8.88
2023-01-20T21:49:26.586Z,6.80
2023-01-20T21:52:13.550Z,6.85
2023-01-20T21:57:09.221Z,5.70
2023-01-20T21:59:36.989Z,7.07
2023-01-20T22:02:04.468Z,8.43
2023-01-20T22:04:32.387Z,6.40
2023-01-20T22:06:59.929Z,7.40
2023-01-20T22:09:27.224Z,6.28
2023-01-20T22:11:54.601Z,7.25
2023-01-20T22:14:21.920Z,6.88
2023-01-20T22:16:49.284Z,6.60
2023-01-20T22:19:16.640Z,6.50
2023-01-20T22:21:43.978Z,6.93
2023-01-20T22:24:11.487Z,6.70
2023-01-20T22:26:38.931Z,6.85
2023-01-20T22:29:06.312Z,7.32
2023-01-20T22:31:34.364Z,7.50
2023-01-20T22:34:06.376Z,6.70
2023-01-20T22:36:34.343Z,8.38
2023-01-20T22:39:02.479Z,6.45
2023-01-20T22:41:30.331Z,6.75
2023-01-20T22:43:58.001Z,6.10
2023-01-20T22:46:27.257Z,8.63
2023-01-20T22:48:56.855Z,7.22
2023-01-20T22:51:26.770Z,6.35
2023-01-20T22:53:58.652Z,6.45
2023-01-20T22:56:28.301Z,7.38
2023-01-20T22:58:56.956Z,7.32
2023-01-20T23:01:27.686Z,6.95
2023-01-20T23:04:00.150Z,5.95
2023-01-20T23:06:29.176Z,6.28
2023-01-20T23:08:56.483Z,6.15
2023-01-20T23:11:24.178Z,6.85
2023-01-20T23:13:52.130Z,7.88
2023-01-20T23:16:22.484Z,6.65
2023-01-20T23:18:51.410Z,7.10
2023-01-20T23:21:20.063Z,6.85
2023-01-20T23:23:54.208Z,7.13
2023-01-20T23:26:24.704Z,8.30
2023-01-20T23:28:53.530Z,7.03
2023-01-20T23:31:22.470Z,7.57
2023-01-20T23:33:50.251Z,7.20
2023-01-20T23:36:20.937Z,7.43
2023-01-20T23:38:48.397Z,6.78
2023-01-20T23:41:16.785Z,7.35
2023-01-20T23:43:44.079Z,7.75
2023-01-20T23:46:11.820Z,7.07
2023-01-20T23:48:39.288Z,6.88
2023-01-20T23:51:07.241Z,6.97
2023-01-20T23:53:37.810Z,6.47
2023-01-20T23:56:08.053Z,7.97
2023-01-20T23:58:35.410Z,6.60
